EJA758 KSNA-KFAT
Flight info
| Callsign | EJA758 |
|---|---|
| Flight time | 0h 47m |
| Altitude | 36000 |
| Route | HHERO3 EHF TTE ALTTA9 |
| Aircraft | CL60/M-SADE3FGHIJ3J4J7P2RWXY/HB1D1 |
Departure
| Time | 2026-04-30 07:47 |
|---|---|
| Airport | John Wayne Orange County International Airport (KSNA) |
Arrival
| Time | 2026-04-30 08:34 |
|---|---|
| Airport | Fresno Yosemite International Airport (KFAT) |
| Time | Latitude | Longitude | Altitude | Speed | Heading |
|---|---|---|---|---|---|
| 2026-04-30 07:31 | 33.67614 | -117.87071 | 54 ft | 0 kts | 220° |
| 2026-04-30 07:38 | 33.67614 | -117.87072 | 54 ft | 0 kts | 220° |
| 2026-04-30 07:39 | 33.67614 | -117.87071 | 54 ft | 0 kts | 220° |
| 2026-04-30 07:40 | 33.67611 | -117.87073 | 54 ft | 3 kts | 187° |
| 2026-04-30 07:40 | 33.67606 | -117.87021 | 54 ft | 9 kts | 74° |
| 2026-04-30 07:40 | 33.67678 | -117.86967 | 53 ft | 13 kts | 27° |
| 2026-04-30 07:40 | 33.67738 | -117.86929 | 52 ft | 6 kts | 27° |
| 2026-04-30 07:41 | 33.67799 | -117.86892 | 51 ft | 16 kts | 27° |
| 2026-04-30 07:41 | 33.67912 | -117.86820 | 50 ft | 20 kts | 28° |
| 2026-04-30 07:41 | 33.68053 | -117.86746 | 48 ft | 24 kts | 28° |
| 2026-04-30 07:41 | 33.68182 | -117.86654 | 47 ft | 13 kts | 60° |
| 2026-04-30 07:42 | 33.68190 | -117.86627 | 47 ft | 0 kts | 83° |
| 2026-04-30 07:42 | 33.68190 | -117.86613 | 47 ft | 8 kts | 89° |
| 2026-04-30 07:42 | 33.68155 | -117.86525 | 47 ft | 14 kts | 142° |
| 2026-04-30 07:43 | 33.68082 | -117.86558 | 47 ft | 13 kts | 209° |
| 2026-04-30 07:43 | 33.68045 | -117.86583 | 47 ft | 0 kts | 209° |
| 2026-04-30 07:43 | 33.68044 | -117.86584 | 47 ft | 1 kts | 209° |
| 2026-04-30 07:44 | 33.68026 | -117.86596 | 48 ft | 4 kts | 209° |
| 2026-04-30 07:44 | 33.67987 | -117.86622 | 48 ft | 8 kts | 209° |
| 2026-04-30 07:44 | 33.67977 | -117.86629 | 48 ft | 0 kts | 209° |
| 2026-04-30 07:46 | 33.67780 | -117.86752 | 51 ft | 83 kts | 208° |
| 2026-04-30 07:46 | 33.66985 | -117.87262 | 185 ft | 164 kts | 208° |
| 2026-04-30 07:47 | 33.65938 | -117.87942 | 1202 ft | 179 kts | 207° |
| 2026-04-30 07:47 | 33.64823 | -117.88608 | 2399 ft | 193 kts | 204° |
| 2026-04-30 07:47 | 33.63567 | -117.89095 | 3651 ft | 204 kts | 189° |
| 2026-04-30 07:47 | 33.62113 | -117.89316 | 4514 ft | 215 kts | 186° |
| 2026-04-30 07:48 | 33.60503 | -117.89532 | 5079 ft | 254 kts | 186° |
| 2026-04-30 07:48 | 33.58726 | -117.89779 | 6317 ft | 268 kts | 186° |
| 2026-04-30 07:48 | 33.56891 | -117.90384 | 7288 ft | 281 kts | 208° |
| 2026-04-30 07:48 | 33.55360 | -117.91829 | 7760 ft | 284 kts | 223° |
| 2026-04-30 07:49 | 33.53937 | -117.93462 | 7936 ft | 281 kts | 223° |
| 2026-04-30 07:49 | 33.52516 | -117.95081 | 7962 ft | 278 kts | 223° |
| 2026-04-30 07:49 | 33.51113 | -117.96677 | 7960 ft | 277 kts | 223° |
| 2026-04-30 07:49 | 33.49725 | -117.98252 | 7962 ft | 277 kts | 223° |
| 2026-04-30 07:50 | 33.48321 | -117.99864 | 7962 ft | 277 kts | 226° |
| 2026-04-30 07:50 | 33.47195 | -118.01811 | 8112 ft | 296 kts | 240° |
| 2026-04-30 07:50 | 33.46170 | -118.03943 | 9456 ft | 301 kts | 239° |
| 2026-04-30 07:50 | 33.45153 | -118.06030 | 11112 ft | 295 kts | 239° |
| 2026-04-30 07:51 | 33.44137 | -118.08109 | 12533 ft | 295 kts | 239° |
| 2026-04-30 07:51 | 33.43108 | -118.10215 | 13740 ft | 301 kts | 239° |
| 2026-04-30 07:51 | 33.42069 | -118.12359 | 14944 ft | 305 kts | 242° |
| 2026-04-30 07:51 | 33.41375 | -118.14770 | 16054 ft | 311 kts | 262° |
| 2026-04-30 07:52 | 33.41464 | -118.17333 | 17016 ft | 318 kts | 282° |
| 2026-04-30 07:52 | 33.41970 | -118.19933 | 17961 ft | 325 kts | 284° |
| 2026-04-30 07:52 | 33.42485 | -118.22553 | 18902 ft | 331 kts | 284° |
| 2026-04-30 07:52 | 33.43008 | -118.25237 | 19755 ft | 339 kts | 284° |
| 2026-04-30 07:53 | 33.43550 | -118.28017 | 20628 ft | 345 kts | 284° |
| 2026-04-30 07:53 | 33.44246 | -118.30742 | 21420 ft | 351 kts | 296° |
| 2026-04-30 07:53 | 33.45369 | -118.33357 | 22195 ft | 357 kts | 300° |
| 2026-04-30 07:53 | 33.46542 | -118.36017 | 22972 ft | 363 kts | 299° |
| 2026-04-30 07:54 | 33.47706 | -118.38671 | 23773 ft | 368 kts | 298° |
| 2026-04-30 07:54 | 33.48895 | -118.41386 | 24721 ft | 367 kts | 298° |
| 2026-04-30 07:54 | 33.50195 | -118.44015 | 25598 ft | 368 kts | 307° |
| 2026-04-30 07:54 | 33.52005 | -118.46155 | 26350 ft | 373 kts | 324° |
| 2026-04-30 07:55 | 33.54310 | -118.47593 | 27015 ft | 379 kts | 342° |
| 2026-04-30 07:55 | 33.56950 | -118.48096 | 27607 ft | 385 kts | 2° |
| 2026-04-30 07:55 | 33.59700 | -118.47791 | 28146 ft | 393 kts | 7° |
| 2026-04-30 07:55 | 33.62461 | -118.47405 | 28675 ft | 401 kts | 7° |
| 2026-04-30 07:56 | 33.65268 | -118.47021 | 29320 ft | 404 kts | 7° |
| 2026-04-30 07:56 | 33.68088 | -118.46636 | 29856 ft | 409 kts | 6° |
| 2026-04-30 07:56 | 33.71008 | -118.46239 | 30286 ft | 418 kts | 6° |
| 2026-04-30 07:56 | 33.73901 | -118.45941 | 30825 ft | 420 kts | 0° |
| 2026-04-30 07:57 | 33.76888 | -118.45924 | 31367 ft | 423 kts | 358° |
| 2026-04-30 07:57 | 33.79876 | -118.45932 | 31849 ft | 427 kts | 357° |
| 2026-04-30 07:57 | 33.82901 | -118.45938 | 32273 ft | 432 kts | 357° |
| 2026-04-30 07:57 | 33.85946 | -118.45943 | 32738 ft | 436 kts | 356° |
| 2026-04-30 07:58 | 33.88996 | -118.45947 | 33144 ft | 440 kts | 355° |
| 2026-04-30 07:58 | 33.92114 | -118.45953 | 33548 ft | 444 kts | 355° |
| 2026-04-30 07:58 | 33.95186 | -118.45957 | 34088 ft | 445 kts | 355° |
| 2026-04-30 07:58 | 33.98328 | -118.45961 | 34662 ft | 445 kts | 355° |
| 2026-04-30 07:59 | 34.01390 | -118.46121 | 35334 ft | 437 kts | 348° |
| 2026-04-30 07:59 | 34.04406 | -118.46574 | 35908 ft | 435 kts | 348° |
| 2026-04-30 07:59 | 34.07448 | -118.47047 | 36022 ft | 436 kts | 348° |
| 2026-04-30 08:00 | 34.16515 | -118.48450 | 36027 ft | 449 kts | 348° |
| 2026-04-30 08:00 | 34.19642 | -118.48936 | 36018 ft | 460 kts | 348° |
| 2026-04-30 08:00 | 34.22893 | -118.49440 | 36013 ft | 469 kts | 348° |
| 2026-04-30 08:01 | 34.29554 | -118.50472 | 36011 ft | 486 kts | 348° |
| 2026-04-30 08:01 | 34.36366 | -118.51525 | 36019 ft | 499 kts | 349° |
| 2026-04-30 08:02 | 34.46786 | -118.53133 | 36024 ft | 500 kts | 349° |
| 2026-04-30 08:03 | 34.60535 | -118.55260 | 36021 ft | 492 kts | 349° |
| 2026-04-30 08:04 | 34.67341 | -118.56317 | 36036 ft | 491 kts | 349° |
| 2026-04-30 08:04 | 34.74114 | -118.57372 | 36046 ft | 490 kts | 349° |
| 2026-04-30 08:05 | 34.80890 | -118.58427 | 36063 ft | 487 kts | 349° |
| 2026-04-30 08:05 | 34.87580 | -118.59471 | 36079 ft | 481 kts | 351° |
| 2026-04-30 08:06 | 34.94196 | -118.60537 | 36074 ft | 473 kts | 348° |
| 2026-04-30 08:06 | 35.00512 | -118.62743 | 35817 ft | 472 kts | 336° |
| 2026-04-30 08:06 | 35.03489 | -118.64517 | 35222 ft | 470 kts | 330° |
| 2026-04-30 08:07 | 35.06187 | -118.66685 | 34610 ft | 462 kts | 323° |
| 2026-04-30 08:07 | 35.08678 | -118.69148 | 34017 ft | 453 kts | 321° |
| 2026-04-30 08:07 | 35.11092 | -118.71597 | 33421 ft | 446 kts | 322° |
| 2026-04-30 08:07 | 35.13498 | -118.74036 | 32803 ft | 441 kts | 322° |
| 2026-04-30 08:08 | 35.15839 | -118.76409 | 32214 ft | 437 kts | 322° |
| 2026-04-30 08:08 | 35.18164 | -118.78771 | 31630 ft | 432 kts | 322° |
| 2026-04-30 08:08 | 35.20470 | -118.81114 | 31056 ft | 427 kts | 322° |
| 2026-04-30 08:08 | 35.22770 | -118.83453 | 30481 ft | 423 kts | 322° |
| 2026-04-30 08:09 | 35.25019 | -118.85742 | 29922 ft | 419 kts | 322° |
| 2026-04-30 08:09 | 35.27276 | -118.88042 | 29354 ft | 415 kts | 322° |
| 2026-04-30 08:09 | 35.29475 | -118.90284 | 28822 ft | 410 kts | 322° |
| 2026-04-30 08:09 | 35.31659 | -118.92512 | 28277 ft | 405 kts | 322° |
| 2026-04-30 08:10 | 35.33807 | -118.94705 | 27748 ft | 401 kts | 322° |
| 2026-04-30 08:10 | 35.35945 | -118.96890 | 27216 ft | 396 kts | 323° |
| 2026-04-30 08:10 | 35.38041 | -118.99033 | 26688 ft | 391 kts | 323° |
| 2026-04-30 08:10 | 35.40129 | -119.01170 | 26176 ft | 386 kts | 323° |
| 2026-04-30 08:11 | 35.42184 | -119.03275 | 25664 ft | 381 kts | 323° |
| 2026-04-30 08:11 | 35.44206 | -119.05347 | 25162 ft | 376 kts | 323° |
| 2026-04-30 08:11 | 35.46219 | -119.07327 | 24667 ft | 369 kts | 329° |
| 2026-04-30 08:11 | 35.48508 | -119.08687 | 24163 ft | 359 kts | 345° |
| 2026-04-30 08:12 | 35.50951 | -119.09144 | 23668 ft | 352 kts | 1° |
| 2026-04-30 08:12 | 35.53379 | -119.08865 | 23148 ft | 347 kts | 9° |
| 2026-04-30 08:12 | 35.55757 | -119.08431 | 22712 ft | 341 kts | 8° |
| 2026-04-30 08:12 | 35.58083 | -119.08015 | 22267 ft | 335 kts | 8° |
| 2026-04-30 08:13 | 35.60374 | -119.07605 | 21821 ft | 330 kts | 8° |
| 2026-04-30 08:13 | 35.62640 | -119.07200 | 21375 ft | 326 kts | 8° |
| 2026-04-30 08:13 | 35.64857 | -119.06803 | 20962 ft | 321 kts | 8° |
| 2026-04-30 08:13 | 35.67070 | -119.06407 | 20512 ft | 317 kts | 8° |
| 2026-04-30 08:14 | 35.69239 | -119.06019 | 20121 ft | 313 kts | 8° |
| 2026-04-30 08:14 | 35.71393 | -119.05634 | 19676 ft | 310 kts | 8° |
| 2026-04-30 08:14 | 35.73504 | -119.05255 | 19283 ft | 306 kts | 8° |
| 2026-04-30 08:14 | 35.75598 | -119.04881 | 18864 ft | 307 kts | 8° |
| 2026-04-30 08:15 | 35.77738 | -119.04497 | 18469 ft | 308 kts | 8° |
| 2026-04-30 08:15 | 35.79847 | -119.04121 | 18042 ft | 308 kts | 8° |
| 2026-04-30 08:15 | 35.81990 | -119.03736 | 17646 ft | 308 kts | 8° |
| 2026-04-30 08:15 | 35.84113 | -119.03356 | 17205 ft | 308 kts | 8° |
| 2026-04-30 08:16 | 35.86212 | -119.02979 | 16791 ft | 305 kts | 8° |
| 2026-04-30 08:16 | 35.88302 | -119.02605 | 16380 ft | 303 kts | 8° |
| 2026-04-30 08:16 | 35.90419 | -119.02271 | 15992 ft | 303 kts | 2° |
| 2026-04-30 08:16 | 35.92478 | -119.02631 | 15603 ft | 303 kts | 342° |
| 2026-04-30 08:17 | 35.94468 | -119.03561 | 15196 ft | 304 kts | 340° |
| 2026-04-30 08:17 | 35.96437 | -119.04500 | 14807 ft | 303 kts | 340° |
| 2026-04-30 08:17 | 35.98400 | -119.05431 | 14395 ft | 302 kts | 340° |
| 2026-04-30 08:17 | 36.00364 | -119.06365 | 14054 ft | 299 kts | 340° |
| 2026-04-30 08:18 | 36.02303 | -119.07288 | 13963 ft | 299 kts | 340° |
| 2026-04-30 08:18 | 36.04264 | -119.08220 | 13601 ft | 304 kts | 340° |
| 2026-04-30 08:18 | 36.06266 | -119.09172 | 12916 ft | 312 kts | 340° |
| 2026-04-30 08:18 | 36.08294 | -119.10138 | 12406 ft | 311 kts | 340° |
| 2026-04-30 08:19 | 36.10311 | -119.11100 | 11964 ft | 308 kts | 340° |
| 2026-04-30 08:19 | 36.12333 | -119.12065 | 11574 ft | 303 kts | 340° |
| 2026-04-30 08:19 | 36.14277 | -119.12994 | 11141 ft | 301 kts | 341° |
| 2026-04-30 08:19 | 36.16228 | -119.13925 | 10754 ft | 297 kts | 340° |
| 2026-04-30 08:20 | 36.18140 | -119.14839 | 10346 ft | 294 kts | 340° |
| 2026-04-30 08:20 | 36.20053 | -119.15754 | 9977 ft | 289 kts | 340° |
| 2026-04-30 08:20 | 36.21908 | -119.16642 | 9603 ft | 285 kts | 340° |
| 2026-04-30 08:20 | 36.23754 | -119.17526 | 9239 ft | 281 kts | 340° |
| 2026-04-30 08:21 | 36.25558 | -119.18389 | 8870 ft | 280 kts | 340° |
| 2026-04-30 08:21 | 36.27365 | -119.19255 | 8466 ft | 277 kts | 340° |
| 2026-04-30 08:21 | 36.29162 | -119.20116 | 8122 ft | 273 kts | 340° |
| 2026-04-30 08:21 | 36.30937 | -119.20968 | 7780 ft | 270 kts | 340° |
| 2026-04-30 08:22 | 36.32671 | -119.21800 | 7406 ft | 266 kts | 340° |
| 2026-04-30 08:22 | 36.34387 | -119.22624 | 7049 ft | 263 kts | 340° |
| 2026-04-30 08:22 | 36.36078 | -119.23436 | 6716 ft | 259 kts | 340° |
| 2026-04-30 08:22 | 36.37775 | -119.24252 | 6352 ft | 256 kts | 340° |
| 2026-04-30 08:23 | 36.39420 | -119.25043 | 6014 ft | 252 kts | 340° |
| 2026-04-30 08:23 | 36.41036 | -119.25820 | 5692 ft | 248 kts | 340° |
| 2026-04-30 08:23 | 36.42641 | -119.26592 | 5360 ft | 244 kts | 340° |
| 2026-04-30 08:23 | 36.44227 | -119.27357 | 5038 ft | 241 kts | 340° |
| 2026-04-30 08:24 | 36.45795 | -119.28111 | 4729 ft | 240 kts | 340° |
| 2026-04-30 08:24 | 36.47355 | -119.28863 | 4407 ft | 240 kts | 340° |
| 2026-04-30 08:24 | 36.48912 | -119.29614 | 4081 ft | 238 kts | 340° |
| 2026-04-30 08:24 | 36.50436 | -119.30349 | 4000 ft | 237 kts | 340° |
| 2026-04-30 08:25 | 36.51979 | -119.31093 | 3999 ft | 237 kts | 340° |
| 2026-04-30 08:25 | 36.53537 | -119.31845 | 4015 ft | 239 kts | 340° |
| 2026-04-30 08:25 | 36.55045 | -119.32695 | 3969 ft | 241 kts | 328° |
| 2026-04-30 08:25 | 36.56206 | -119.34203 | 3759 ft | 238 kts | 308° |
| 2026-04-30 08:26 | 36.57153 | -119.35873 | 3543 ft | 230 kts | 308° |
| 2026-04-30 08:26 | 36.58058 | -119.37460 | 3331 ft | 224 kts | 308° |
| 2026-04-30 08:26 | 36.58950 | -119.39020 | 3096 ft | 218 kts | 308° |
| 2026-04-30 08:26 | 36.59834 | -119.40563 | 2886 ft | 210 kts | 308° |
| 2026-04-30 08:27 | 36.60632 | -119.41959 | 2816 ft | 188 kts | 308° |
| 2026-04-30 08:27 | 36.61364 | -119.43242 | 2843 ft | 177 kts | 309° |
| 2026-04-30 08:27 | 36.62071 | -119.44501 | 2811 ft | 175 kts | 308° |
| 2026-04-30 08:27 | 36.62768 | -119.45747 | 2799 ft | 173 kts | 309° |
| 2026-04-30 08:28 | 36.63465 | -119.46966 | 2794 ft | 172 kts | 309° |
| 2026-04-30 08:28 | 36.64162 | -119.48177 | 2798 ft | 171 kts | 309° |
| 2026-04-30 08:28 | 36.64861 | -119.49389 | 2795 ft | 171 kts | 309° |
| 2026-04-30 08:28 | 36.65548 | -119.50586 | 2806 ft | 171 kts | 309° |
| 2026-04-30 08:29 | 36.66245 | -119.51798 | 2795 ft | 171 kts | 309° |
| 2026-04-30 08:29 | 36.66938 | -119.53004 | 2795 ft | 171 kts | 309° |
| 2026-04-30 08:29 | 36.67632 | -119.54211 | 2804 ft | 171 kts | 309° |
| 2026-04-30 08:29 | 36.68321 | -119.55410 | 2793 ft | 171 kts | 309° |
| 2026-04-30 08:30 | 36.69020 | -119.56629 | 2790 ft | 170 kts | 309° |
| 2026-04-30 08:30 | 36.69696 | -119.57809 | 2710 ft | 165 kts | 309° |
| 2026-04-30 08:30 | 36.70342 | -119.58936 | 2517 ft | 155 kts | 309° |
| 2026-04-30 08:30 | 36.70948 | -119.59997 | 2321 ft | 144 kts | 309° |
| 2026-04-30 08:31 | 36.71526 | -119.61003 | 2129 ft | 140 kts | 310° |
| 2026-04-30 08:31 | 36.72068 | -119.61949 | 1972 ft | 126 kts | 310° |
| 2026-04-30 08:31 | 36.72578 | -119.62839 | 1817 ft | 125 kts | 310° |
| 2026-04-30 08:31 | 36.73080 | -119.63712 | 1630 ft | 121 kts | 310° |
| 2026-04-30 08:32 | 36.73568 | -119.64562 | 1483 ft | 121 kts | 310° |
| 2026-04-30 08:32 | 36.74059 | -119.65429 | 1305 ft | 121 kts | 309° |
| 2026-04-30 08:32 | 36.74556 | -119.66279 | 1189 ft | 120 kts | 308° |
| 2026-04-30 08:32 | 36.75045 | -119.67129 | 1044 ft | 121 kts | 307° |
| 2026-04-30 08:33 | 36.75517 | -119.67987 | 874 ft | 121 kts | 306° |
| 2026-04-30 08:33 | 36.75995 | -119.68841 | 705 ft | 119 kts | 307° |
| 2026-04-30 08:33 | 36.76474 | -119.69672 | 517 ft | 118 kts | 307° |
| 2026-04-30 08:33 | 36.76953 | -119.70484 | 357 ft | 113 kts | 306° |
| 2026-04-30 08:34 | 36.77362 | -119.71191 | 336 ft | 75 kts | 306° |
| 2026-04-30 08:34 | 36.77579 | -119.71585 | 336 ft | 41 kts | 297° |
| 2026-04-30 08:34 | 36.77644 | -119.71827 | 336 ft | 19 kts | 281° |